createdAt,value
2017-03-19T00:00:28.515Z,997.01
2017-03-19T00:01:28.530Z,997.01
2017-03-19T00:02:28.544Z,997.04
2017-03-19T00:03:28.558Z,997.07
2017-03-19T00:04:28.572Z,997.08
2017-03-19T00:05:28.588Z,997.06
2017-03-19T00:06:28.602Z,997.1
2017-03-19T00:07:28.617Z,997.09
2017-03-19T00:08:28.630Z,997.09
2017-03-19T00:09:28.643Z,997.13
2017-03-19T00:10:28.660Z,997.11
2017-03-19T00:11:28.673Z,997.07
2017-03-19T00:12:28.690Z,997.13
2017-03-19T00:13:28.703Z,997.1
2017-03-19T00:14:28.718Z,997.12
2017-03-19T00:15:28.732Z,997.09
2017-03-19T00:16:28.744Z,997.14
2017-03-19T00:17:28.762Z,997.13
2017-03-19T00:18:28.777Z,997.11
2017-03-19T00:19:28.789Z,997.08
2017-03-19T00:20:28.803Z,997.11
2017-03-19T00:21:28.817Z,997.09
2017-03-19T00:22:28.831Z,997.14
2017-03-19T00:23:28.848Z,997.15
2017-03-19T00:24:28.864Z,997.13
2017-03-19T00:25:28.874Z,997.12
2017-03-19T00:26:28.889Z,997.14
2017-03-19T00:27:28.911Z,997.11
2017-03-19T00:28:28.931Z,997.13
2017-03-19T00:29:28.933Z,997.14
2017-03-19T00:30:28.946Z,997.15
2017-03-19T00:31:28.960Z,997.17
2017-03-19T00:32:28.976Z,997.15
2017-03-19T00:33:28.989Z,997.17
2017-03-19T00:34:29.003Z,997.19
2017-03-19T00:35:29.017Z,997.19
2017-03-19T00:36:29.033Z,997.21
2017-03-19T00:37:29.081Z,997.17
2017-03-19T00:38:29.062Z,997.21
2017-03-19T00:39:29.076Z,997.22
2017-03-19T00:40:29.090Z,997.15
2017-03-19T00:41:29.103Z,997.15
2017-03-19T00:42:29.118Z,997.17
2017-03-19T00:43:29.133Z,997.18
2017-03-19T00:44:29.146Z,997.18
2017-03-19T00:45:29.161Z,997.2
2017-03-19T00:46:29.174Z,997.17
2017-03-19T00:47:29.190Z,997.13
2017-03-19T00:48:29.204Z,997.19
2017-03-19T00:49:29.217Z,997.17
2017-03-19T00:50:29.231Z,997.17
2017-03-19T00:51:29.246Z,997.17
2017-03-19T00:52:29.260Z,997.17
2017-03-19T00:53:29.273Z,997.21
2017-03-19T00:54:29.289Z,997.25
2017-03-19T00:55:29.303Z,997.24
2017-03-19T00:56:29.317Z,997.23
2017-03-19T00:57:29.332Z,997.23
2017-03-19T00:58:29.347Z,997.21
2017-03-19T00:59:29.360Z,997.23
2017-03-19T01:00:29.374Z,997.19
2017-03-19T01:01:29.389Z,997.27
2017-03-19T01:02:29.403Z,997.24
2017-03-19T01:03:29.419Z,997.27
2017-03-19T01:04:29.431Z,997.21
2017-03-19T01:05:29.446Z,997.27
2017-03-19T01:06:29.459Z,997.23
2017-03-19T01:07:29.474Z,997.19
2017-03-19T01:08:29.488Z,997.2
2017-03-19T01:09:29.503Z,997.17
2017-03-19T01:10:29.517Z,997.2
2017-03-19T01:11:29.535Z,997.22
2017-03-19T01:12:29.546Z,997.23
2017-03-19T01:13:29.561Z,997.26
2017-03-19T01:14:29.573Z,997.3
2017-03-19T01:15:29.587Z,997.31
2017-03-19T01:16:29.602Z,997.26
2017-03-19T01:17:29.616Z,997.28
2017-03-19T01:18:29.630Z,997.31
2017-03-19T01:19:29.644Z,997.32
2017-03-19T01:20:29.658Z,997.34
2017-03-19T01:21:29.672Z,997.31
2017-03-19T01:22:29.687Z,997.27
2017-03-19T01:23:29.701Z,997.25
2017-03-19T01:24:29.716Z,997.26
2017-03-19T01:25:29.729Z,997.27
2017-03-19T01:26:29.741Z,997.3
2017-03-19T01:27:29.757Z,997.28
2017-03-19T01:28:29.772Z,997.28
2017-03-19T01:29:29.786Z,997.3
2017-03-19T01:30:29.800Z,997.32
2017-03-19T01:31:29.814Z,997.36
2017-03-19T01:32:29.852Z,997.37
2017-03-19T01:33:29.843Z,997.29
2017-03-19T01:34:29.856Z,997.3
2017-03-19T01:35:29.874Z,997.35
2017-03-19T01:36:29.885Z,997.39
2017-03-19T01:37:29.897Z,997.42
2017-03-19T01:38:29.913Z,997.42
2017-03-19T01:39:29.925Z,997.44
2017-03-19T01:40:29.975Z,997.44
2017-03-19T01:41:29.954Z,997.41
2017-03-19T01:42:29.970Z,997.39
2017-03-19T01:43:29.984Z,997.38
2017-03-19T01:44:30.000Z,997.4
2017-03-19T01:45:30.012Z,997.41
2017-03-19T01:46:30.025Z,997.4
2017-03-19T01:47:30.040Z,997.38
2017-03-19T01:48:30.053Z,997.38
2017-03-19T01:49:30.069Z,997.41
2017-03-19T01:50:30.082Z,997.43
2017-03-19T01:51:30.096Z,997.45
2017-03-19T01:52:30.108Z,997.45
2017-03-19T01:53:30.124Z,997.45
2017-03-19T01:54:30.138Z,997.47
2017-03-19T01:55:30.152Z,997.5
2017-03-19T01:56:30.167Z,997.49
2017-03-19T01:57:30.182Z,997.51
2017-03-19T01:58:30.196Z,997.5
2017-03-19T01:59:30.208Z,997.53
2017-03-19T02:00:30.226Z,997.59
2017-03-19T02:01:30.237Z,997.58
2017-03-19T02:02:30.250Z,997.55
2017-03-19T02:03:30.264Z,997.56
2017-03-19T02:04:30.279Z,997.6
2017-03-19T02:05:30.293Z,997.6
2017-03-19T02:06:30.306Z,997.66
2017-03-19T02:07:30.320Z,997.64
2017-03-19T02:08:30.335Z,997.68
2017-03-19T02:09:30.350Z,997.68
2017-03-19T02:10:30.361Z,997.67
2017-03-19T02:11:30.378Z,997.68
2017-03-19T02:12:30.390Z,997.65
2017-03-19T02:13:30.408Z,997.67
2017-03-19T02:14:30.418Z,997.73
2017-03-19T02:15:30.433Z,997.76
2017-03-19T02:16:30.450Z,997.78
2017-03-19T02:17:30.460Z,997.77
2017-03-19T02:18:30.476Z,997.77
2017-03-19T02:19:30.488Z,997.75
2017-03-19T02:20:30.501Z,997.83
2017-03-19T02:21:30.518Z,997.8
2017-03-19T02:22:30.531Z,997.77
2017-03-19T02:23:30.544Z,997.74
2017-03-19T02:24:30.558Z,997.77
2017-03-19T02:25:30.572Z,997.77
2017-03-19T02:26:30.587Z,997.75
2017-03-19T02:27:30.601Z,997.77
2017-03-19T02:28:30.614Z,997.77
2017-03-19T02:29:30.627Z,997.77
2017-03-19T02:30:30.640Z,997.82
2017-03-19T02:31:30.655Z,997.77
2017-03-19T02:32:30.670Z,997.79
2017-03-19T02:33:30.684Z,997.73
2017-03-19T02:34:30.698Z,997.73
2017-03-19T02:35:30.711Z,997.73
2017-03-19T02:36:30.727Z,997.72
2017-03-19T02:37:30.741Z,997.72
2017-03-19T02:38:30.753Z,997.73
2017-03-19T02:39:30.768Z,997.72
2017-03-19T02:40:30.782Z,997.75
2017-03-19T02:41:30.794Z,997.75
2017-03-19T02:42:30.810Z,997.76
2017-03-19T02:43:30.823Z,997.82
2017-03-19T02:44:30.839Z,997.82
2017-03-19T02:45:30.851Z,997.84
2017-03-19T02:46:30.866Z,997.83
2017-03-19T02:47:30.878Z,997.79
2017-03-19T02:48:30.893Z,997.78
2017-03-19T02:49:30.907Z,997.83
2017-03-19T02:50:30.920Z,997.87
2017-03-19T02:51:30.933Z,997.92
2017-03-19T02:52:30.948Z,997.91
2017-03-19T02:53:30.963Z,997.9
2017-03-19T02:54:30.978Z,997.95
2017-03-19T02:55:30.990Z,997.96
2017-03-19T02:56:31.016Z,998.02
2017-03-19T02:57:31.018Z,998.01
2017-03-19T02:58:31.033Z,997.93
2017-03-19T02:59:31.084Z,997.96
2017-03-19T03:00:31.060Z,997.92
2017-03-19T03:01:31.074Z,997.9
2017-03-19T03:02:31.089Z,997.95
2017-03-19T03:03:31.104Z,997.96
2017-03-19T03:04:31.117Z,997.97
2017-03-19T03:05:31.130Z,997.96
2017-03-19T03:06:31.143Z,997.99
2017-03-19T03:07:31.157Z,997.96
2017-03-19T03:08:31.172Z,997.94
2017-03-19T03:09:31.187Z,997.89
2017-03-19T03:10:31.199Z,997.93
2017-03-19T03:11:31.216Z,997.92
2017-03-19T03:12:31.228Z,997.87
2017-03-19T03:13:31.240Z,997.9
2017-03-19T03:14:31.255Z,997.9
2017-03-19T03:15:31.269Z,997.95
2017-03-19T03:16:31.284Z,997.99
2017-03-19T03:17:31.297Z,998.02
2017-03-19T03:18:31.311Z,998.02
2017-03-19T03:19:31.323Z,998.02
2017-03-19T03:20:31.339Z,997.99
2017-03-19T03:21:31.353Z,997.98
2017-03-19T03:22:31.368Z,997.94
2017-03-19T03:23:31.380Z,997.99
2017-03-19T03:24:31.396Z,997.99
2017-03-19T03:25:31.407Z,997.93
2017-03-19T03:26:31.447Z,997.91
2017-03-19T03:27:31.435Z,997.95
2017-03-19T03:28:31.450Z,997.91
2017-03-19T03:29:31.462Z,997.88
2017-03-19T03:30:31.479Z,997.87
2017-03-19T03:31:31.491Z,997.89
2017-03-19T03:32:31.507Z,997.86
2017-03-19T03:33:31.519Z,997.85
2017-03-19T03:34:31.533Z,997.84
2017-03-19T03:35:31.548Z,997.83
2017-03-19T03:36:31.560Z,997.83
2017-03-19T03:37:31.576Z,997.83
2017-03-19T03:38:31.590Z,997.85
2017-03-19T03:39:31.606Z,997.84
2017-03-19T03:40:31.618Z,997.88
2017-03-19T03:41:31.630Z,997.92
2017-03-19T03:42:31.645Z,997.93
2017-03-19T03:43:31.659Z,997.87
2017-03-19T03:44:31.672Z,997.9
2017-03-19T03:45:31.718Z,997.93
2017-03-19T03:46:31.701Z,997.92
2017-03-19T03:47:31.715Z,997.93
2017-03-19T03:48:31.728Z,997.94
2017-03-19T03:49:31.742Z,997.92
2017-03-19T03:50:31.757Z,997.91
2017-03-19T03:51:31.768Z,997.92
2017-03-19T03:52:31.785Z,997.92
2017-03-19T03:53:31.797Z,997.9
2017-03-19T03:54:31.811Z,997.91
2017-03-19T03:55:31.823Z,997.89
2017-03-19T03:56:31.838Z,997.92
2017-03-19T03:57:31.857Z,997.94
2017-03-19T03:58:31.865Z,997.89
2017-03-19T03:59:31.881Z,997.82
2017-03-19T04:00:31.894Z,997.81
2017-03-19T04:01:31.909Z,997.77
2017-03-19T04:02:31.921Z,997.8
2017-03-19T04:03:31.937Z,997.74
2017-03-19T04:04:31.950Z,997.74
2017-03-19T04:05:31.963Z,997.73
2017-03-19T04:06:31.976Z,997.75
2017-03-19T04:07:31.991Z,997.81
2017-03-19T04:08:32.006Z,997.75
2017-03-19T04:09:32.019Z,997.74
2017-03-19T04:10:32.033Z,997.72
2017-03-19T04:11:32.047Z,997.72
2017-03-19T04:12:32.060Z,997.7
2017-03-19T04:13:32.075Z,997.72
2017-03-19T04:14:32.088Z,997.76
2017-03-19T04:15:32.103Z,997.77
2017-03-19T04:16:32.115Z,997.73
2017-03-19T04:17:32.129Z,997.72
2017-03-19T04:18:32.144Z,997.72
2017-03-19T04:19:32.159Z,997.72
2017-03-19T04:20:32.170Z,997.71
2017-03-19T04:21:32.190Z,997.74
2017-03-19T04:22:32.200Z,997.72
2017-03-19T04:23:32.214Z,997.78
2017-03-19T04:24:32.226Z,997.85
2017-03-19T04:25:32.243Z,997.91
2017-03-19T04:26:32.257Z,997.95
2017-03-19T04:27:32.268Z,997.95
2017-03-19T04:28:32.325Z,998.01
2017-03-19T04:29:32.296Z,997.99
2017-03-19T04:30:32.311Z,997.98
2017-03-19T04:31:32.324Z,998.03
2017-03-19T04:32:32.338Z,998
2017-03-19T04:33:32.351Z,997.99
2017-03-19T04:34:32.364Z,998.02
2017-03-19T04:35:32.379Z,998.04
2017-03-19T04:36:32.394Z,998.01
2017-03-19T04:37:32.407Z,998
2017-03-19T04:38:32.424Z,998.06
2017-03-19T04:39:32.435Z,998.02
2017-03-19T04:40:32.448Z,998.03
2017-03-19T04:41:32.462Z,998.08
2017-03-19T04:42:32.486Z,998.06
2017-03-19T04:43:32.492Z,998.11
2017-03-19T04:44:32.504Z,998.09
2017-03-19T04:45:32.517Z,998.07
2017-03-19T04:46:32.531Z,998
2017-03-19T04:47:32.545Z,997.96
2017-03-19T04:48:32.559Z,997.96
2017-03-19T04:49:32.572Z,997.94
2017-03-19T04:50:32.587Z,997.98
2017-03-19T04:51:32.600Z,997.98
2017-03-19T04:52:32.621Z,997.96
2017-03-19T04:53:32.628Z,997.92
2017-03-19T04:54:32.641Z,997.89
2017-03-19T04:55:32.657Z,997.83
2017-03-19T04:56:32.681Z,997.87
2017-03-19T04:57:32.683Z,997.82
2017-03-19T04:58:32.698Z,997.81
2017-03-19T04:59:32.713Z,997.78
2017-03-19T05:00:32.723Z,997.8
2017-03-19T05:01:32.738Z,997.78
2017-03-19T05:02:32.753Z,997.8
2017-03-19T05:03:32.768Z,997.79
2017-03-19T05:04:32.780Z,997.82
2017-03-19T05:05:32.793Z,997.84
2017-03-19T05:06:32.807Z,997.85
2017-03-19T05:07:32.821Z,997.83
2017-03-19T05:08:32.836Z,997.83
2017-03-19T05:09:32.850Z,997.85
2017-03-19T05:10:32.866Z,997.87
2017-03-19T05:11:32.877Z,997.88
2017-03-19T05:12:32.893Z,997.85
2017-03-19T05:13:32.905Z,997.88
2017-03-19T05:14:32.918Z,997.85
2017-03-19T05:15:32.932Z,997.85
2017-03-19T05:16:32.946Z,997.86
2017-03-19T05:17:32.960Z,997.87
2017-03-19T05:18:32.974Z,997.82
2017-03-19T05:19:32.988Z,997.84
2017-03-19T05:20:33.001Z,997.81
2017-03-19T05:21:33.015Z,997.86
2017-03-19T05:22:33.029Z,997.86
2017-03-19T05:23:33.050Z,997.87
2017-03-19T05:24:33.057Z,997.86
2017-03-19T05:25:33.072Z,997.86
2017-03-19T05:26:33.085Z,997.81
2017-03-19T05:27:33.097Z,997.79
2017-03-19T05:28:33.139Z,997.82
2017-03-19T05:29:33.125Z,997.82
2017-03-19T05:30:33.143Z,997.85
2017-03-19T05:31:33.153Z,997.86
2017-03-19T05:32:33.166Z,997.9
2017-03-19T05:33:33.181Z,997.88
2017-03-19T05:34:33.194Z,997.89
2017-03-19T05:35:33.208Z,997.9
2017-03-19T05:36:33.223Z,997.94
2017-03-19T05:37:33.236Z,997.92
2017-03-19T05:38:33.249Z,997.96
2017-03-19T05:39:33.264Z,997.99
2017-03-19T05:40:33.277Z,997.98
2017-03-19T05:41:33.296Z,998
2017-03-19T05:42:33.305Z,997.99
2017-03-19T05:43:33.321Z,997.95
2017-03-19T05:44:33.332Z,997.95
2017-03-19T05:45:33.345Z,997.99
2017-03-19T05:46:33.359Z,998.05
2017-03-19T05:47:33.374Z,998.09
2017-03-19T05:48:33.387Z,998.08
2017-03-19T05:49:33.402Z,998.13
2017-03-19T05:50:33.415Z,998.15
2017-03-19T05:51:33.428Z,998.11
2017-03-19T05:52:33.445Z,998.14
2017-03-19T05:53:33.457Z,998.11
2017-03-19T05:54:33.471Z,998.12
2017-03-19T05:55:33.482Z,998.17
2017-03-19T05:56:33.498Z,998.16
2017-03-19T05:57:33.510Z,998.19
2017-03-19T05:58:33.527Z,998.16
2017-03-19T05:59:33.538Z,998.11
2017-03-19T06:00:33.555Z,998.1
2017-03-19T06:01:33.566Z,998.04
2017-03-19T06:02:33.581Z,998.02
2017-03-19T06:03:33.592Z,998.06
2017-03-19T06:04:33.607Z,998.04
2017-03-19T06:05:33.622Z,998.09
2017-03-19T06:06:33.649Z,998.05
2017-03-19T06:07:33.648Z,998.12
2017-03-19T06:08:33.664Z,998.12
2017-03-19T06:09:33.678Z,998.09
2017-03-19T06:10:33.691Z,998.1
2017-03-19T06:11:33.705Z,998.1
2017-03-19T06:12:33.719Z,998.11
2017-03-19T06:13:33.731Z,998.11
2017-03-19T06:14:33.746Z,998.07
2017-03-19T06:15:33.759Z,998.07
2017-03-19T06:16:33.773Z,998.03
2017-03-19T06:17:33.787Z,998.02
2017-03-19T06:18:33.802Z,997.97
2017-03-19T06:19:33.899Z,997.99
2017-03-19T06:20:33.829Z,997.96
2017-03-19T06:21:33.843Z,997.95
2017-03-19T06:22:33.855Z,997.93
2017-03-19T06:23:33.871Z,997.95
2017-03-19T06:24:33.884Z,997.98
2017-03-19T06:25:33.897Z,998.01
2017-03-19T06:26:33.912Z,997.98
2017-03-19T06:27:33.926Z,998.06
2017-03-19T06:28:33.938Z,998.04
2017-03-19T06:29:33.954Z,998.07
2017-03-19T06:30:33.966Z,998.07
2017-03-19T06:31:33.980Z,998.07
2017-03-19T06:32:33.995Z,998.06
2017-03-19T06:33:34.009Z,998.08
2017-03-19T06:34:34.024Z,998.04
2017-03-19T06:35:34.036Z,998.05
2017-03-19T06:36:34.050Z,998.06
2017-03-19T06:37:34.063Z,998.05
2017-03-19T06:38:34.097Z,998.01
2017-03-19T06:39:34.092Z,998.07
2017-03-19T06:40:34.110Z,998.03
2017-03-19T06:41:34.148Z,998.07
2017-03-19T06:42:34.157Z,998.03
2017-03-19T06:43:34.151Z,998.01
2017-03-19T06:44:34.214Z,998.03
2017-03-19T06:45:34.201Z,998
2017-03-19T06:46:34.193Z,998.05
2017-03-19T06:47:34.208Z,998
2017-03-19T06:48:34.218Z,998.05
2017-03-19T06:49:34.232Z,998.02
2017-03-19T06:50:34.247Z,998.03
2017-03-19T06:51:34.261Z,998.03
2017-03-19T06:52:34.275Z,998.02
2017-03-19T06:53:34.397Z,998.04
2017-03-19T06:54:34.307Z,997.98
2017-03-19T06:55:34.319Z,997.98
2017-03-19T06:56:34.331Z,998
2017-03-19T06:57:34.343Z,998.02
2017-03-19T06:58:34.359Z,998
2017-03-19T06:59:34.373Z,997.98
2017-03-19T07:00:34.388Z,997.94
2017-03-19T07:01:34.399Z,997.91
2017-03-19T07:02:34.415Z,997.9
2017-03-19T07:03:34.429Z,997.93
2017-03-19T07:04:34.444Z,997.91
2017-03-19T07:05:34.456Z,997.92
2017-03-19T07:06:34.472Z,997.92
2017-03-19T07:07:34.492Z,997.92
2017-03-19T07:08:34.501Z,997.89
2017-03-19T07:09:34.515Z,997.84
2017-03-19T07:10:34.548Z,997.85
2017-03-19T07:11:34.543Z,997.92
2017-03-19T07:12:34.556Z,997.87
2017-03-19T07:13:34.570Z,997.86
2017-03-19T07:14:34.585Z,997.85
2017-03-19T07:15:34.598Z,997.84
2017-03-19T07:16:34.612Z,997.85
2017-03-19T07:17:34.627Z,997.85
2017-03-19T07:18:34.642Z,997.88
2017-03-19T07:19:34.656Z,997.84
2017-03-19T07:20:34.669Z,997.86
2017-03-19T07:21:34.684Z,997.87
2017-03-19T07:22:34.700Z,997.83
2017-03-19T07:23:34.714Z,997.82
2017-03-19T07:24:34.728Z,997.8
2017-03-19T07:25:34.741Z,997.81
2017-03-19T07:26:34.755Z,997.81
2017-03-19T07:27:34.771Z,997.73
2017-03-19T07:28:34.785Z,997.74
2017-03-19T07:29:34.801Z,997.75
2017-03-19T07:30:34.897Z,997.73
2017-03-19T07:31:34.829Z,997.76
2017-03-19T07:32:34.845Z,997.76
2017-03-19T07:33:34.859Z,997.77
2017-03-19T07:34:34.872Z,997.75
2017-03-19T07:35:34.886Z,997.8
2017-03-19T07:36:34.900Z,997.77
2017-03-19T07:37:34.916Z,997.73
2017-03-19T07:38:34.930Z,997.72
2017-03-19T07:39:34.944Z,997.74
2017-03-19T07:40:34.960Z,997.71
2017-03-19T07:41:34.974Z,997.68
2017-03-19T07:42:34.988Z,997.67
2017-03-19T07:43:35.004Z,997.65
2017-03-19T07:44:35.110Z,997.66
2017-03-19T07:45:35.132Z,997.65
2017-03-19T07:46:35.141Z,997.64
2017-03-19T07:47:35.162Z,997.63
2017-03-19T07:48:35.158Z,997.67
2017-03-19T07:49:35.091Z,997.63
2017-03-19T07:50:35.107Z,997.61
2017-03-19T07:51:35.242Z,997.56
2017-03-19T07:52:35.134Z,997.55
2017-03-19T07:53:35.150Z,997.53
2017-03-19T07:54:35.166Z,997.51
2017-03-19T07:55:35.179Z,997.56
2017-03-19T07:56:35.194Z,997.53
2017-03-19T07:57:35.208Z,997.57
2017-03-19T07:58:35.223Z,997.59
2017-03-19T07:59:35.238Z,997.59
2017-03-19T08:00:35.252Z,997.57
2017-03-19T08:01:35.268Z,997.54
2017-03-19T08:02:35.283Z,997.56
2017-03-19T08:03:35.297Z,997.56
2017-03-19T08:04:35.312Z,997.57
2017-03-19T08:05:35.327Z,997.58
2017-03-19T08:06:35.342Z,997.61
2017-03-19T08:07:35.356Z,997.56
2017-03-19T08:08:35.371Z,997.54
2017-03-19T08:09:35.387Z,997.52
2017-03-19T08:10:35.402Z,997.48
2017-03-19T08:11:35.415Z,997.41
2017-03-19T08:12:35.433Z,997.34
2017-03-19T08:13:35.447Z,997.36
2017-03-19T08:14:35.459Z,997.35
2017-03-19T08:15:35.478Z,997.36
2017-03-19T08:16:35.492Z,997.37
2017-03-19T08:17:35.508Z,997.3
2017-03-19T08:18:35.522Z,997.23
2017-03-19T08:19:35.538Z,997.21
2017-03-19T08:20:35.554Z,997.14
2017-03-19T08:21:35.569Z,997.11
2017-03-19T08:22:35.582Z,997.11
2017-03-19T08:23:35.598Z,997.11
2017-03-19T08:24:35.613Z,997.04
2017-03-19T08:25:35.628Z,996.98
2017-03-19T08:26:35.643Z,997
2017-03-19T08:27:35.660Z,996.99
2017-03-19T08:28:35.674Z,997.01
2017-03-19T08:29:35.689Z,997.03
2017-03-19T08:30:35.703Z,997.03
2017-03-19T08:31:35.719Z,997.03
2017-03-19T08:32:35.735Z,997.04
2017-03-19T08:33:35.749Z,997.08
2017-03-19T08:34:35.764Z,997.04
2017-03-19T08:35:35.779Z,997.07
2017-03-19T08:36:35.794Z,997
2017-03-19T08:37:35.810Z,996.96
2017-03-19T08:38:35.827Z,996.9
2017-03-19T08:39:35.840Z,996.9
2017-03-19T08:40:35.855Z,996.9
2017-03-19T08:41:35.871Z,996.87
2017-03-19T08:42:35.887Z,996.87
2017-03-19T08:43:35.902Z,996.85
2017-03-19T08:44:35.917Z,996.82
2017-03-19T08:45:35.933Z,996.84
2017-03-19T08:46:35.947Z,996.81
2017-03-19T08:47:35.963Z,996.75
2017-03-19T08:48:35.978Z,996.73
2017-03-19T08:49:35.992Z,996.75
2017-03-19T08:50:36.007Z,996.76
2017-03-19T08:51:36.024Z,996.77
2017-03-19T08:52:36.042Z,996.75
2017-03-19T08:53:36.056Z,996.69
2017-03-19T08:54:36.070Z,996.74
2017-03-19T08:55:36.084Z,996.69
2017-03-19T08:56:36.101Z,996.69
2017-03-19T08:57:36.116Z,996.65
2017-03-19T08:58:36.133Z,996.64
2017-03-19T08:59:36.146Z,996.61
2017-03-19T09:00:36.163Z,996.59
2017-03-19T09:01:36.179Z,996.56
2017-03-19T09:02:36.192Z,996.52
2017-03-19T09:03:36.208Z,996.48
2017-03-19T09:04:36.224Z,996.45
2017-03-19T09:05:36.239Z,996.34
2017-03-19T09:06:36.256Z,996.34
2017-03-19T09:07:36.269Z,996.38
2017-03-19T09:08:36.286Z,996.35
2017-03-19T09:09:36.301Z,996.35
2017-03-19T09:10:36.316Z,996.25
2017-03-19T09:11:36.331Z,996.26
2017-03-19T09:12:36.346Z,996.26
2017-03-19T09:13:36.360Z,996.26
2017-03-19T09:14:36.379Z,996.28
2017-03-19T09:15:36.393Z,996.23
2017-03-19T09:16:36.416Z,996.19
2017-03-19T09:17:36.424Z,996.18
2017-03-19T09:18:36.441Z,996.2
2017-03-19T09:19:36.456Z,996.12
2017-03-19T09:20:36.476Z,996.15
2017-03-19T09:21:36.489Z,996.11
2017-03-19T09:22:36.502Z,996.13
2017-03-19T09:23:36.518Z,996.14
2017-03-19T09:24:36.532Z,996.13
2017-03-19T09:25:36.550Z,996.13
2017-03-19T09:26:36.566Z,996.15
2017-03-19T09:27:36.578Z,996.15
2017-03-19T09:28:36.594Z,996.12
2017-03-19T09:29:36.610Z,996.05
2017-03-19T09:30:36.627Z,996.1
2017-03-19T09:31:36.641Z,996.07
2017-03-19T09:32:36.658Z,996.1
2017-03-19T09:33:36.672Z,996.06
2017-03-19T09:34:36.689Z,996.05
2017-03-19T09:35:36.702Z,996.06
2017-03-19T09:36:36.719Z,996.04
2017-03-19T09:37:36.793Z,995.97
2017-03-19T09:38:36.749Z,995.97
2017-03-19T09:39:36.765Z,995.93
2017-03-19T09:40:36.781Z,995.92
2017-03-19T09:41:36.797Z,995.94
2017-03-19T09:42:36.811Z,995.95
2017-03-19T09:43:36.827Z,995.95
2017-03-19T09:44:36.842Z,995.91
2017-03-19T09:45:36.856Z,995.88
2017-03-19T09:46:36.872Z,995.9
2017-03-19T09:47:36.888Z,995.89
2017-03-19T09:48:36.904Z,995.83
2017-03-19T09:49:36.980Z,995.86
2017-03-19T09:50:36.966Z,995.88
2017-03-19T09:51:36.951Z,995.8
2017-03-19T09:52:36.967Z,995.8
2017-03-19T09:53:36.983Z,995.82
2017-03-19T09:54:36.997Z,995.83
2017-03-19T09:55:37.014Z,995.77
2017-03-19T09:56:37.029Z,995.84
2017-03-19T09:57:37.071Z,995.77
2017-03-19T09:58:37.061Z,995.77
2017-03-19T09:59:37.075Z,995.73
2017-03-19T10:00:37.091Z,995.72
2017-03-19T10:01:37.107Z,995.69
2017-03-19T10:02:37.123Z,995.68
2017-03-19T10:03:37.138Z,995.64
2017-03-19T10:04:37.153Z,995.66
2017-03-19T10:05:37.173Z,995.64
2017-03-19T10:06:37.184Z,995.56
2017-03-19T10:07:37.207Z,995.5
2017-03-19T10:08:37.216Z,995.49
2017-03-19T10:09:37.229Z,995.47
2017-03-19T10:10:37.246Z,995.5
2017-03-19T10:11:37.264Z,995.45
2017-03-19T10:12:37.277Z,995.48
2017-03-19T10:13:37.296Z,995.48
2017-03-19T10:14:37.309Z,995.46
2017-03-19T10:15:37.325Z,995.43
2017-03-19T10:16:37.339Z,995.4
2017-03-19T10:17:37.355Z,995.41
2017-03-19T10:18:37.371Z,995.41
2017-03-19T10:19:37.385Z,995.37
2017-03-19T10:20:37.404Z,995.32
2017-03-19T10:21:37.418Z,995.3
2017-03-19T10:22:37.434Z,995.29
2017-03-19T10:23:37.450Z,995.27
2017-03-19T10:24:37.467Z,995.23
2017-03-19T10:25:37.480Z,995.28
2017-03-19T10:26:37.494Z,995.16
2017-03-19T10:27:37.512Z,995.15
2017-03-19T10:28:37.527Z,995.16
2017-03-19T10:29:37.542Z,995.16
2017-03-19T10:30:37.559Z,995.14
2017-03-19T10:31:37.574Z,995.1
2017-03-19T10:32:37.590Z,995.08
2017-03-19T10:33:37.605Z,995.04
2017-03-19T10:34:37.621Z,994.97
2017-03-19T10:35:37.636Z,994.9
2017-03-19T10:36:37.651Z,994.88
2017-03-19T10:37:37.669Z,994.83
2017-03-19T10:38:37.683Z,994.82
2017-03-19T10:39:37.699Z,994.78
2017-03-19T10:40:37.916Z,994.79
2017-03-19T10:41:37.730Z,994.79
2017-03-19T10:42:37.750Z,994.76
2017-03-19T10:43:37.762Z,994.67
2017-03-19T10:44:37.778Z,994.65
2017-03-19T10:45:37.805Z,994.69
2017-03-19T10:46:37.809Z,994.64
2017-03-19T10:47:37.825Z,994.69
2017-03-19T10:48:37.840Z,994.64
2017-03-19T10:49:37.856Z,994.65
2017-03-19T10:50:37.873Z,994.59
2017-03-19T10:51:37.888Z,994.56
2017-03-19T10:52:37.905Z,994.53
2017-03-19T10:53:37.921Z,994.54
2017-03-19T10:54:37.935Z,994.52
2017-03-19T10:55:37.957Z,994.43
2017-03-19T10:56:37.968Z,994.42
2017-03-19T10:57:37.983Z,994.37
2017-03-19T10:58:37.998Z,994.34
2017-03-19T10:59:38.022Z,994.31
2017-03-19T11:00:38.030Z,994.22
2017-03-19T11:01:38.046Z,994.23
2017-03-19T11:02:38.063Z,994.18
2017-03-19T11:03:38.078Z,994.16
2017-03-19T11:04:38.094Z,994.18
2017-03-19T11:05:38.113Z,994.15
2017-03-19T11:06:38.125Z,994.12
2017-03-19T11:07:38.142Z,994.06
2017-03-19T11:08:38.158Z,994.02
2017-03-19T11:09:38.173Z,993.96
2017-03-19T11:10:38.189Z,993.92
2017-03-19T11:11:38.206Z,993.9
2017-03-19T11:12:38.223Z,993.9
2017-03-19T11:13:38.236Z,993.84
2017-03-19T11:14:38.254Z,993.82
2017-03-19T11:15:38.270Z,993.85
2017-03-19T11:16:38.286Z,993.78
2017-03-19T11:17:38.301Z,993.78
2017-03-19T11:18:38.317Z,993.75
2017-03-19T11:19:38.333Z,993.73
2017-03-19T11:20:38.347Z,993.71
2017-03-19T11:21:38.366Z,993.63
2017-03-19T11:22:38.380Z,993.6
2017-03-19T11:23:38.395Z,993.57
2017-03-19T11:24:38.410Z,993.57
2017-03-19T11:25:38.429Z,993.49
2017-03-19T11:26:38.444Z,993.56
2017-03-19T11:27:38.462Z,993.57
2017-03-19T11:28:38.477Z,993.53
2017-03-19T11:29:38.494Z,993.54
2017-03-19T11:30:38.509Z,993.51
2017-03-19T11:31:38.525Z,993.52
2017-03-19T11:32:38.542Z,993.48
2017-03-19T11:33:38.557Z,993.45
2017-03-19T11:34:38.574Z,993.5
2017-03-19T11:35:38.590Z,993.47
2017-03-19T11:36:38.605Z,993.5
2017-03-19T11:37:38.623Z,993.43
2017-03-19T11:38:38.638Z,993.38
2017-03-19T11:39:38.653Z,993.38
2017-03-19T11:40:38.675Z,993.31
2017-03-19T11:41:38.686Z,993.32
2017-03-19T11:42:38.701Z,993.31
2017-03-19T11:43:38.717Z,993.26
2017-03-19T11:44:38.734Z,993.25
2017-03-19T11:45:38.751Z,993.23
2017-03-19T11:46:38.771Z,993.24
2017-03-19T11:47:38.782Z,993.3
2017-03-19T11:48:38.799Z,993.29
2017-03-19T11:49:38.812Z,993.21
2017-03-19T11:50:38.831Z,993.2
2017-03-19T11:51:38.846Z,993.11
2017-03-19T11:52:38.863Z,993.05
2017-03-19T11:53:38.880Z,993.05
2017-03-19T11:54:38.893Z,993.05
2017-03-19T11:55:38.912Z,993.09
2017-03-19T11:56:38.927Z,993.1
2017-03-19T11:57:38.943Z,993.07
2017-03-19T11:58:38.958Z,993.05
2017-03-19T11:59:38.976Z,993.04
2017-03-19T12:00:38.992Z,993.03
2017-03-19T12:01:39.007Z,993.02
2017-03-19T12:02:39.026Z,993
2017-03-19T12:03:39.042Z,992.96
2017-03-19T12:04:39.057Z,992.99
2017-03-19T12:05:39.073Z,993.06
2017-03-19T12:06:39.088Z,993.05
2017-03-19T12:07:39.106Z,993.03
2017-03-19T12:08:39.123Z,993.01
2017-03-19T12:09:39.138Z,992.93
2017-03-19T12:10:39.166Z,992.89
2017-03-19T12:11:39.170Z,992.87
2017-03-19T12:12:39.188Z,992.8
2017-03-19T12:13:39.205Z,992.76
2017-03-19T12:14:39.219Z,992.76
2017-03-19T12:15:39.236Z,992.74
2017-03-19T12:16:39.251Z,992.72
2017-03-19T12:17:39.269Z,992.67
2017-03-19T12:18:39.285Z,992.64
2017-03-19T12:19:39.300Z,992.58
2017-03-19T12:20:39.318Z,992.59
2017-03-19T12:21:39.333Z,992.55
2017-03-19T12:22:39.349Z,992.59
2017-03-19T12:23:39.366Z,992.59
2017-03-19T12:24:39.382Z,992.57
2017-03-19T12:25:39.399Z,992.62
2017-03-19T12:26:39.415Z,992.6
2017-03-19T12:27:39.430Z,992.71
2017-03-19T12:28:39.448Z,992.6
2017-03-19T12:29:39.464Z,992.59
2017-03-19T12:30:39.480Z,992.52
2017-03-19T12:31:39.498Z,992.52